sensor_id;sensor_type;location;lat;lon;timestamp;pressure;altitude;pressure_sealevel;temperature;humidity
49999;BME280;68071;45.062;7.356;2023-04-06T00:00:10;95315.53;;;2.38;68.93
49999;BME280;68071;45.062;7.356;2023-04-06T00:03:16;95315.94;;;2.24;70.03
49999;BME280;68071;45.062;7.356;2023-04-06T00:06:20;95321.59;;;1.87;72.28
49999;BME280;68071;45.062;7.356;2023-04-06T00:09:24;95320.84;;;1.74;73.32
49999;BME280;68071;45.062;7.356;2023-04-06T00:12:28;95315.94;;;3.04;64.66
49999;BME280;68071;45.062;7.356;2023-04-06T00:15:32;95314.19;;;3.12;63.68
49999;BME280;68071;45.062;7.356;2023-04-06T00:18:37;95314.19;;;2.80;65.60
49999;BME280;68071;45.062;7.356;2023-04-06T00:21:41;95307.31;;;3.02;63.90
49999;BME280;68071;45.062;7.356;2023-04-06T00:24:45;95310.31;;;2.97;64.28
49999;BME280;68071;45.062;7.356;2023-04-06T00:27:49;95314.22;;;2.48;67.08
49999;BME280;68071;45.062;7.356;2023-04-06T00:30:54;95321.69;;;2.35;68.06
49999;BME280;68071;45.062;7.356;2023-04-06T00:33:59;95319.06;;;2.70;66.13
49999;BME280;68071;45.062;7.356;2023-04-06T00:37:03;95317.31;;;1.73;71.70
49999;BME280;68071;45.062;7.356;2023-04-06T00:40:07;95319.81;;;1.38;74.28
49999;BME280;68071;45.062;7.356;2023-04-06T00:43:12;95329.78;;;1.33;74.61
49999;BME280;68071;45.062;7.356;2023-04-06T00:46:16;95318.06;;;2.31;68.60
49999;BME280;68071;45.062;7.356;2023-04-06T00:49:20;95322.03;;;2.33;68.47
49999;BME280;68071;45.062;7.356;2023-04-06T00:52:24;95320.75;;;1.70;71.28
49999;BME280;68071;45.062;7.356;2023-04-06T00:55:30;95326.72;;;1.47;72.90
49999;BME280;68071;45.062;7.356;2023-04-06T00:58:35;95330.38;;;1.39;73.88
49999;BME280;68071;45.062;7.356;2023-04-06T01:01:44;95330.56;;;1.46;73.65
49999;BME280;68071;45.062;7.356;2023-04-06T01:05:04;95321.03;;;1.53;74.81
49999;BME280;68071;45.062;7.356;2023-04-06T01:08:18;95335.28;;;0.96;75.47
49999;BME280;68071;45.062;7.356;2023-04-06T01:11:23;95327.81;;;0.81;76.67
49999;BME280;68071;45.062;7.356;2023-04-06T01:14:29;95334.94;;;0.85;76.63
49999;BME280;68071;45.062;7.356;2023-04-06T01:17:37;95323.34;;;1.26;75.11
49999;BME280;68071;45.062;7.356;2023-04-06T01:20:48;95331.75;;;1.33;74.06
49999;BME280;68071;45.062;7.356;2023-04-06T01:23:54;95324.53;;;1.53;72.57
49999;BME280;68071;45.062;7.356;2023-04-06T01:27:05;95330.06;;;1.28;74.10
49999;BME280;68071;45.062;7.356;2023-04-06T01:30:18;95337.91;;;0.68;76.81
49999;BME280;68071;45.062;7.356;2023-04-06T01:33:28;95325.56;;;1.48;72.72
49999;BME280;68071;45.062;7.356;2023-04-06T01:36:40;95327.34;;;1.03;75.41
49999;BME280;68071;45.062;7.356;2023-04-06T01:39:59;95333.38;;;0.97;75.75
49999;BME280;68071;45.062;7.356;2023-04-06T01:43:16;95321.25;;;1.07;74.82
49999;BME280;68071;45.062;7.356;2023-04-06T01:46:42;95321.94;;;1.44;72.98
49999;BME280;68071;45.062;7.356;2023-04-06T01:49:48;95328.38;;;0.99;75.22
49999;BME280;68071;45.062;7.356;2023-04-06T01:52:53;95325.66;;;1.11;75.04
49999;BME280;68071;45.062;7.356;2023-04-06T01:56:00;95320.72;;;1.42;73.29
49999;BME280;68071;45.062;7.356;2023-04-06T01:59:09;95320.53;;;1.63;72.04
49999;BME280;68071;45.062;7.356;2023-04-06T02:02:17;95314.03;;;1.39;73.34
49999;BME280;68071;45.062;7.356;2023-04-06T02:05:33;95312.75;;;0.83;76.29
49999;BME280;68071;45.062;7.356;2023-04-06T02:08:47;95322.97;;;1.40;72.93
49999;BME280;68071;45.062;7.356;2023-04-06T02:11:51;95314.84;;;1.15;74.95
49999;BME280;68071;45.062;7.356;2023-04-06T02:14:56;95318.50;;;1.19;74.46
49999;BME280;68071;45.062;7.356;2023-04-06T02:18:00;95314.56;;;1.04;75.33
49999;BME280;68071;45.062;7.356;2023-04-06T02:21:04;95314.09;;;1.02;75.16
49999;BME280;68071;45.062;7.356;2023-04-06T02:24:08;95315.78;;;0.57;77.79
49999;BME280;68071;45.062;7.356;2023-04-06T02:27:14;95320.78;;;0.80;76.47
49999;BME280;68071;45.062;7.356;2023-04-06T02:30:18;95315.81;;;0.94;75.26
49999;BME280;68071;45.062;7.356;2023-04-06T02:33:23;95317.97;;;1.01;74.07
49999;BME280;68071;45.062;7.356;2023-04-06T02:36:27;95321.34;;;0.98;74.23
49999;BME280;68071;45.062;7.356;2023-04-06T02:39:31;95320.34;;;0.65;76.26
49999;BME280;68071;45.062;7.356;2023-04-06T02:42:35;95313.97;;;0.98;74.40
49999;BME280;68071;45.062;7.356;2023-04-06T02:45:41;95314.91;;;0.65;76.08
49999;BME280;68071;45.062;7.356;2023-04-06T02:48:47;95313.31;;;0.77;75.76
49999;BME280;68071;45.062;7.356;2023-04-06T02:51:52;95314.78;;;0.74;75.65
49999;BME280;68071;45.062;7.356;2023-04-06T02:55:01;95314.09;;;0.52;76.95
49999;BME280;68071;45.062;7.356;2023-04-06T02:58:08;95310.25;;;1.03;74.30
49999;BME280;68071;45.062;7.356;2023-04-06T03:01:21;95317.63;;;0.90;74.79
49999;BME280;68071;45.062;7.356;2023-04-06T03:04:31;95312.06;;;0.74;75.43
49999;BME280;68071;45.062;7.356;2023-04-06T03:07:38;95309.91;;;0.67;76.13
49999;BME280;68071;45.062;7.356;2023-04-06T03:10:43;95321.69;;;0.84;75.53
49999;BME280;68071;45.062;7.356;2023-04-06T03:13:48;95309.47;;;0.90;75.38
49999;BME280;68071;45.062;7.356;2023-04-06T03:16:53;95308.78;;;0.81;75.46
49999;BME280;68071;45.062;7.356;2023-04-06T03:20:00;95313.00;;;0.66;75.66
49999;BME280;68071;45.062;7.356;2023-04-06T03:23:05;95317.41;;;0.83;74.71
49999;BME280;68071;45.062;7.356;2023-04-06T03:26:14;95313.63;;;0.38;76.82
49999;BME280;68071;45.062;7.356;2023-04-06T03:29:18;95314.88;;;0.28;78.33
49999;BME280;68071;45.062;7.356;2023-04-06T03:32:22;95316.09;;;-0.16;82.83
49999;BME280;68071;45.062;7.356;2023-04-06T03:35:26;95326.50;;;0.16;79.98
49999;BME280;68071;45.062;7.356;2023-04-06T03:38:30;95324.09;;;0.60;77.47
49999;BME280;68071;45.062;7.356;2023-04-06T03:41:34;95329.84;;;0.47;78.01
49999;BME280;68071;45.062;7.356;2023-04-06T03:44:49;95329.44;;;0.11;80.38
49999;BME280;68071;45.062;7.356;2023-04-06T03:47:54;95319.91;;;0.05;80.63
49999;BME280;68071;45.062;7.356;2023-04-06T03:50:58;95333.63;;;0.21;80.15
49999;BME280;68071;45.062;7.356;2023-04-06T03:54:03;95326.50;;;0.16;80.05
49999;BME280;68071;45.062;7.356;2023-04-06T03:57:08;95332.25;;;0.73;76.83
49999;BME280;68071;45.062;7.356;2023-04-06T04:00:12;95333.13;;;0.52;77.66
49999;BME280;68071;45.062;7.356;2023-04-06T04:03:16;95339.13;;;0.45;77.76
49999;BME280;68071;45.062;7.356;2023-04-06T04:06:21;95333.44;;;0.26;79.35
49999;BME280;68071;45.062;7.356;2023-04-06T04:09:25;95330.19;;;0.57;77.48
49999;BME280;68071;45.062;7.356;2023-04-06T04:12:29;95330.97;;;0.33;78.63
49999;BME280;68071;45.062;7.356;2023-04-06T04:15:35;95332.56;;;0.34;78.25
49999;BME280;68071;45.062;7.356;2023-04-06T04:18:39;95333.16;;;0.65;76.29
49999;BME280;68071;45.062;7.356;2023-04-06T04:21:45;95329.63;;;0.52;76.84
49999;BME280;68071;45.062;7.356;2023-04-06T04:24:54;95337.16;;;0.21;81.23
49999;BME280;68071;45.062;7.356;2023-04-06T04:27:58;95337.84;;;0.18;79.84
49999;BME280;68071;45.062;7.356;2023-04-06T04:31:02;95331.91;;;0.62;77.60
49999;BME280;68071;45.062;7.356;2023-04-06T04:34:09;95342.56;;;0.80;75.94
49999;BME280;68071;45.062;7.356;2023-04-06T04:37:13;95338.34;;;0.70;76.54
49999;BME280;68071;45.062;7.356;2023-04-06T04:40:27;95329.16;;;0.62;76.44
49999;BME280;68071;45.062;7.356;2023-04-06T04:43:39;95341.13;;;0.24;79.15
49999;BME280;68071;45.062;7.356;2023-04-06T04:46:44;95338.94;;;0.05;80.70
49999;BME280;68071;45.062;7.356;2023-04-06T04:49:50;95331.16;;;-0.18;82.84
49999;BME280;68071;45.062;7.356;2023-04-06T04:52:59;95337.97;;;-0.67;90.00
49999;BME280;68071;45.062;7.356;2023-04-06T04:56:05;95344.44;;;-0.38;85.10
49999;BME280;68071;45.062;7.356;2023-04-06T04:59:09;95344.19;;;-0.11;82.79
49999;BME280;68071;45.062;7.356;2023-04-06T05:02:17;95346.28;;;-0.51;87.13
49999;BME280;68071;45.062;7.356;2023-04-06T05:05:44;95355.16;;;0.13;80.53
49999;BME280;68071;45.062;7.356;2023-04-06T05:08:50;95356.69;;;-0.32;83.62
49999;BME280;68071;45.062;7.356;2023-04-06T05:11:53;95351.50;;;-0.24;83.82
49999;BME280;68071;45.062;7.356;2023-04-06T05:14:58;95343.81;;;-0.22;83.88
49999;BME280;68071;45.062;7.356;2023-04-06T05:18:04;95352.72;;;-0.01;82.90
49999;BME280;68071;45.062;7.356;2023-04-06T05:21:11;95357.91;;;0.26;80.88
49999;BME280;68071;45.062;7.356;2023-04-06T05:24:37;95351.53;;;0.22;81.57
49999;BME280;68071;45.062;7.356;2023-04-06T05:27:45;95359.03;;;0.25;80.81
49999;BME280;68071;45.062;7.356;2023-04-06T05:31:05;95372.06;;;0.32;80.42
49999;BME280;68071;45.062;7.356;2023-04-06T05:34:18;95362.56;;;0.25;82.61
49999;BME280;68071;45.062;7.356;2023-04-06T05:37:24;95359.91;;;0.87;78.56
49999;BME280;68071;45.062;7.356;2023-04-06T05:40:29;95370.09;;;0.90;79.81
49999;BME280;68071;45.062;7.356;2023-04-06T05:43:33;95356.25;;;0.46;84.84
49999;BME280;68071;45.062;7.356;2023-04-06T05:46:39;95369.75;;;0.80;82.43
49999;BME280;68071;45.062;7.356;2023-04-06T05:49:45;95366.28;;;1.04;80.30
49999;BME280;68071;45.062;7.356;2023-04-06T05:52:57;95371.59;;;1.00;81.96
49999;BME280;68071;45.062;7.356;2023-04-06T05:56:07;95367.63;;;1.10;81.58
49999;BME280;68071;45.062;7.356;2023-04-06T05:59:11;95374.31;;;1.13;81.64
49999;BME280;68071;45.062;7.356;2023-04-06T06:02:15;95376.41;;;1.57;80.80
49999;BME280;68071;45.062;7.356;2023-04-06T06:05:23;95375.00;;;1.63;79.89
49999;BME280;68071;45.062;7.356;2023-04-06T06:08:29;95382.34;;;1.34;83.95
49999;BME280;68071;45.062;7.356;2023-04-06T06:11:33;95370.16;;;1.69;81.18
49999;BME280;68071;45.062;7.356;2023-04-06T06:14:39;95376.38;;;2.26;79.20
49999;BME280;68071;45.062;7.356;2023-04-06T06:17:44;95377.28;;;2.30;81.02
49999;BME280;68071;45.062;7.356;2023-04-06T06:20:48;95372.44;;;2.23;82.06
49999;BME280;68071;45.062;7.356;2023-04-06T06:23:53;95372.97;;;2.29;82.17
49999;BME280;68071;45.062;7.356;2023-04-06T06:26:59;95373.44;;;2.47;80.25
49999;BME280;68071;45.062;7.356;2023-04-06T06:30:06;95368.34;;;2.94;77.18
49999;BME280;68071;45.062;7.356;2023-04-06T06:33:13;95380.31;;;3.21;74.45
49999;BME280;68071;45.062;7.356;2023-04-06T06:36:18;95370.97;;;3.38;75.71
49999;BME280;68071;45.062;7.356;2023-04-06T06:39:23;95369.00;;;3.39;72.51
49999;BME280;68071;45.062;7.356;2023-04-06T06:42:28;95369.41;;;3.57;68.88
49999;BME280;68071;45.062;7.356;2023-04-06T06:45:44;95368.84;;;3.67;69.08
49999;BME280;68071;45.062;7.356;2023-04-06T06:48:50;95369.84;;;3.78;68.93
49999;BME280;68071;45.062;7.356;2023-04-06T06:51:54;95368.00;;;4.02;67.18
49999;BME280;68071;45.062;7.356;2023-04-06T06:54:58;95369.78;;;4.34;66.41
49999;BME280;68071;45.062;7.356;2023-04-06T06:58:02;95366.88;;;4.46;65.83
49999;BME280;68071;45.062;7.356;2023-04-06T07:01:06;95363.44;;;4.30;64.63
49999;BME280;68071;45.062;7.356;2023-04-06T07:04:12;95373.94;;;4.47;65.95
49999;BME280;68071;45.062;7.356;2023-04-06T07:07:16;95374.28;;;4.65;64.58
49999;BME280;68071;45.062;7.356;2023-04-06T07:10:20;95366.59;;;4.75;65.44
49999;BME280;68071;45.062;7.356;2023-04-06T07:13:24;95371.59;;;4.69;65.60
49999;BME280;68071;45.062;7.356;2023-04-06T07:16:33;95380.03;;;5.30;59.78
49999;BME280;68071;45.062;7.356;2023-04-06T07:19:37;95376.03;;;5.00;62.17
49999;BME280;68071;45.062;7.356;2023-04-06T07:22:43;95379.47;;;5.44;59.10
49999;BME280;68071;45.062;7.356;2023-04-06T07:25:48;95371.75;;;5.26;60.10
49999;BME280;68071;45.062;7.356;2023-04-06T07:28:54;95370.22;;;5.29;58.54
49999;BME280;68071;45.062;7.356;2023-04-06T07:32:01;95370.81;;;5.42;58.38
49999;BME280;68071;45.062;7.356;2023-04-06T07:35:05;95369.91;;;5.61;55.98
49999;BME280;68071;45.062;7.356;2023-04-06T07:38:09;95379.66;;;5.58;57.92
49999;BME280;68071;45.062;7.356;2023-04-06T07:41:13;95375.50;;;5.68;57.38
49999;BME280;68071;45.062;7.356;2023-04-06T07:44:18;95374.47;;;5.53;58.16
49999;BME280;68071;45.062;7.356;2023-04-06T07:47:23;95378.72;;;6.04;56.14
49999;BME280;68071;45.062;7.356;2023-04-06T07:50:27;95376.59;;;5.64;57.12
49999;BME280;68071;45.062;7.356;2023-04-06T07:53:32;95374.41;;;6.03;56.97
49999;BME280;68071;45.062;7.356;2023-04-06T07:56:37;95379.28;;;6.17;57.21
49999;BME280;68071;45.062;7.356;2023-04-06T07:59:41;95375.56;;;6.36;56.05
49999;BME280;68071;45.062;7.356;2023-04-06T08:02:45;95372.31;;;6.61;53.73
49999;BME280;68071;45.062;7.356;2023-04-06T08:05:50;95376.41;;;6.41;54.94
49999;BME280;68071;45.062;7.356;2023-04-06T08:08:54;95372.72;;;6.63;54.70
49999;BME280;68071;45.062;7.356;2023-04-06T08:11:58;95373.66;;;6.78;56.27
49999;BME280;68071;45.062;7.356;2023-04-06T08:15:02;95372.53;;;6.83;54.21
49999;BME280;68071;45.062;7.356;2023-04-06T08:18:08;95371.63;;;6.72;52.60
49999;BME280;68071;45.062;7.356;2023-04-06T08:21:11;95363.63;;;6.56;53.16
49999;BME280;68071;45.062;7.356;2023-04-06T08:24:15;95366.63;;;6.81;51.25
49999;BME280;68071;45.062;7.356;2023-04-06T08:27:19;95366.13;;;6.72;53.53
49999;BME280;68071;45.062;7.356;2023-04-06T08:30:23;95362.28;;;6.76;49.92
49999;BME280;68071;45.062;7.356;2023-04-06T08:33:28;95365.34;;;6.71;52.53
49999;BME280;68071;45.062;7.356;2023-04-06T08:36:32;95362.72;;;6.86;50.32
49999;BME280;68071;45.062;7.356;2023-04-06T08:39:36;95360.56;;;7.06;49.86
49999;BME280;68071;45.062;7.356;2023-04-06T08:42:44;95370.66;;;6.94;52.96
49999;BME280;68071;45.062;7.356;2023-04-06T08:45:53;95363.13;;;6.84;51.42
49999;BME280;68071;45.062;7.356;2023-04-06T08:48:59;95364.00;;;6.95;51.30
49999;BME280;68071;45.062;7.356;2023-04-06T08:52:07;95363.84;;;6.77;48.93
49999;BME280;68071;45.062;7.356;2023-04-06T08:55:11;95374.47;;;6.82;51.03
49999;BME280;68071;45.062;7.356;2023-04-06T08:58:15;95368.00;;;7.05;51.28
49999;BME280;68071;45.062;7.356;2023-04-06T09:01:29;95370.63;;;6.87;52.25
49999;BME280;68071;45.062;7.356;2023-04-06T09:04:35;95359.09;;;7.19;50.00
49999;BME280;68071;45.062;7.356;2023-04-06T09:07:40;95364.94;;;7.14;49.61
49999;BME280;68071;45.062;7.356;2023-04-06T09:10:44;95363.50;;;7.28;49.76
49999;BME280;68071;45.062;7.356;2023-04-06T09:13:54;95361.03;;;7.15;49.32
49999;BME280;68071;45.062;7.356;2023-04-06T09:16:58;95361.38;;;7.10;49.47
49999;BME280;68071;45.062;7.356;2023-04-06T09:20:03;95361.25;;;6.95;52.74
49999;BME280;68071;45.062;7.356;2023-04-06T09:23:17;95367.59;;;7.03;49.99
49999;BME280;68071;45.062;7.356;2023-04-06T09:26:21;95359.84;;;7.16;49.43
49999;BME280;68071;45.062;7.356;2023-04-06T09:29:26;95366.38;;;7.49;49.55
49999;BME280;68071;45.062;7.356;2023-04-06T09:32:30;95367.84;;;7.32;48.75
49999;BME280;68071;45.062;7.356;2023-04-06T09:35:34;95360.25;;;7.18;49.67
49999;BME280;68071;45.062;7.356;2023-04-06T09:38:52;95365.81;;;7.81;50.32
49999;BME280;68071;45.062;7.356;2023-04-06T09:41:56;95367.50;;;8.11;49.53
49999;BME280;68071;45.062;7.356;2023-04-06T09:45:04;95363.88;;;7.89;50.70
49999;BME280;68071;45.062;7.356;2023-04-06T09:48:08;95360.47;;;8.17;48.45
49999;BME280;68071;45.062;7.356;2023-04-06T09:51:13;95369.84;;;8.02;47.92
49999;BME280;68071;45.062;7.356;2023-04-06T09:54:20;95367.72;;;8.55;46.53
49999;BME280;68071;45.062;7.356;2023-04-06T09:57:28;95362.09;;;8.33;46.75
49999;BME280;68071;45.062;7.356;2023-04-06T10:00:48;95361.38;;;8.54;47.91
49999;BME280;68071;45.062;7.356;2023-04-06T10:04:04;95363.63;;;8.27;48.09
49999;BME280;68071;45.062;7.356;2023-04-06T10:07:11;95344.81;;;8.40;47.90
49999;BME280;68071;45.062;7.356;2023-04-06T10:10:16;95346.91;;;9.04;43.56
49999;BME280;68071;45.062;7.356;2023-04-06T10:13:20;95349.59;;;8.57;46.56
49999;BME280;68071;45.062;7.356;2023-04-06T10:16:25;95349.25;;;9.38;44.66
49999;BME280;68071;45.062;7.356;2023-04-06T10:19:38;95355.16;;;9.55;45.14
49999;BME280;68071;45.062;7.356;2023-04-06T10:22:51;95343.75;;;9.02;43.10
49999;BME280;68071;45.062;7.356;2023-04-06T10:26:01;95349.25;;;9.46;43.83
49999;BME280;68071;45.062;7.356;2023-04-06T10:29:06;95345.72;;;8.87;44.88
49999;BME280;68071;45.062;7.356;2023-04-06T10:32:09;95347.66;;;9.70;43.63
49999;BME280;68071;45.062;7.356;2023-04-06T10:35:15;95347.28;;;9.72;43.57
49999;BME280;68071;45.062;7.356;2023-04-06T10:38:19;95353.19;;;9.37;43.97
49999;BME280;68071;45.062;7.356;2023-04-06T10:41:44;95348.09;;;9.39;42.51
49999;BME280;68071;45.062;7.356;2023-04-06T10:44:50;95347.31;;;9.28;43.58
49999;BME280;68071;45.062;7.356;2023-04-06T10:47:55;95346.47;;;8.59;48.89
49999;BME280;68071;45.062;7.356;2023-04-06T10:50:59;95345.97;;;8.42;47.40
49999;BME280;68071;45.062;7.356;2023-04-06T10:54:03;95344.94;;;8.98;45.63
49999;BME280;68071;45.062;7.356;2023-04-06T10:57:08;95342.16;;;9.66;43.57
49999;BME280;68071;45.062;7.356;2023-04-06T11:00:13;95342.97;;;9.02;42.94
49999;BME280;68071;45.062;7.356;2023-04-06T11:03:18;95339.28;;;8.43;45.93
49999;BME280;68071;45.062;7.356;2023-04-06T11:06:27;95328.00;;;8.92;44.92
49999;BME280;68071;45.062;7.356;2023-04-06T11:09:33;95323.69;;;9.02;45.63
49999;BME280;68071;45.062;7.356;2023-04-06T11:12:41;95321.25;;;9.65;43.18
49999;BME280;68071;45.062;7.356;2023-04-06T11:15:46;95314.56;;;9.59;43.79
49999;BME280;68071;45.062;7.356;2023-04-06T11:19:02;95307.44;;;9.65;42.33
49999;BME280;68071;45.062;7.356;2023-04-06T11:22:07;95311.22;;;10.15;41.06
49999;BME280;68071;45.062;7.356;2023-04-06T11:25:11;95312.25;;;9.25;44.01
49999;BME280;68071;45.062;7.356;2023-04-06T11:28:18;95303.94;;;9.54;42.97
49999;BME280;68071;45.062;7.356;2023-04-06T11:31:25;95295.31;;;8.76;42.97
49999;BME280;68071;45.062;7.356;2023-04-06T11:34:33;95296.47;;;9.22;42.71
49999;BME280;68071;45.062;7.356;2023-04-06T11:37:39;95295.97;;;9.78;43.73
49999;BME280;68071;45.062;7.356;2023-04-06T11:40:43;95286.66;;;10.39;43.78
49999;BME280;68071;45.062;7.356;2023-04-06T11:43:47;95287.72;;;9.71;45.21
49999;BME280;68071;45.062;7.356;2023-04-06T11:46:54;95277.03;;;9.83;45.88
49999;BME280;68071;45.062;7.356;2023-04-06T11:50:09;95275.19;;;10.40;41.44
49999;BME280;68071;45.062;7.356;2023-04-06T11:53:14;95275.63;;;10.32;43.90
49999;BME280;68071;45.062;7.356;2023-04-06T11:56:28;95268.69;;;11.22;40.51
49999;BME280;68071;45.062;7.356;2023-04-06T11:59:32;95256.44;;;11.23;38.51
49999;BME280;68071;45.062;7.356;2023-04-06T12:02:38;95256.75;;;10.86;40.02
49999;BME280;68071;45.062;7.356;2023-04-06T12:05:43;95254.66;;;11.43;39.96
49999;BME280;68071;45.062;7.356;2023-04-06T12:08:47;95257.81;;;10.47;43.32
49999;BME280;68071;45.062;7.356;2023-04-06T12:11:51;95245.38;;;11.19;40.04
49999;BME280;68071;45.062;7.356;2023-04-06T12:14:55;95246.69;;;11.45;39.21
49999;BME280;68071;45.062;7.356;2023-04-06T12:17:59;95240.63;;;10.78;40.81
49999;BME280;68071;45.062;7.356;2023-04-06T12:21:03;95244.75;;;10.51;40.85
49999;BME280;68071;45.062;7.356;2023-04-06T12:24:09;95230.47;;;10.60;42.34
49999;BME280;68071;45.062;7.356;2023-04-06T12:27:13;95226.13;;;11.08;40.58
49999;BME280;68071;45.062;7.356;2023-04-06T12:30:17;95222.53;;;11.15;40.23
49999;BME280;68071;45.062;7.356;2023-04-06T12:33:21;95222.53;;;11.15;39.67
49999;BME280;68071;45.062;7.356;2023-04-06T12:36:25;95216.63;;;11.09;41.25
49999;BME280;68071;45.062;7.356;2023-04-06T12:39:29;95217.00;;;11.11;40.29
49999;BME280;68071;45.062;7.356;2023-04-06T12:42:33;95218.84;;;10.83;42.73
49999;BME280;68071;45.062;7.356;2023-04-06T12:45:39;95215.34;;;10.12;42.77
49999;BME280;68071;45.062;7.356;2023-04-06T12:48:44;95203.69;;;10.53;42.21
49999;BME280;68071;45.062;7.356;2023-04-06T12:51:48;95200.19;;;10.49;43.43
49999;BME280;68071;45.062;7.356;2023-04-06T12:54:51;95194.97;;;10.58;40.40
49999;BME280;68071;45.062;7.356;2023-04-06T12:57:56;95199.03;;;10.43;43.82
49999;BME280;68071;45.062;7.356;2023-04-06T13:01:00;95193.53;;;10.32;42.94
49999;BME280;68071;45.062;7.356;2023-04-06T13:04:06;95194.66;;;10.46;42.53
49999;BME280;68071;45.062;7.356;2023-04-06T13:07:10;95188.38;;;10.41;44.24
49999;BME280;68071;45.062;7.356;2023-04-06T13:10:15;95182.41;;;9.76;41.28
49999;BME280;68071;45.062;7.356;2023-04-06T13:13:29;95186.50;;;10.24;42.68
49999;BME280;68071;45.062;7.356;2023-04-06T13:16:33;95187.63;;;10.30;41.17
49999;BME280;68071;45.062;7.356;2023-04-06T13:19:37;95178.81;;;10.53;41.11
49999;BME280;68071;45.062;7.356;2023-04-06T13:22:42;95180.38;;;10.54;41.36
49999;BME280;68071;45.062;7.356;2023-04-06T13:25:46;95178.09;;;10.91;38.81
49999;BME280;68071;45.062;7.356;2023-04-06T13:28:50;95175.47;;;10.20;39.88
49999;BME280;68071;45.062;7.356;2023-04-06T13:31:54;95172.50;;;9.89;42.50
49999;BME280;68071;45.062;7.356;2023-04-06T13:34:58;95165.13;;;10.32;41.54
49999;BME280;68071;45.062;7.356;2023-04-06T13:38:03;95164.97;;;10.99;40.28
49999;BME280;68071;45.062;7.356;2023-04-06T13:41:08;95165.56;;;10.79;40.32
49999;BME280;68071;45.062;7.356;2023-04-06T13:44:12;95162.34;;;10.35;42.07
49999;BME280;68071;45.062;7.356;2023-04-06T13:47:16;95149.41;;;10.74;39.62
49999;BME280;68071;45.062;7.356;2023-04-06T13:50:20;95154.38;;;10.48;41.87
49999;BME280;68071;45.062;7.356;2023-04-06T13:53:25;95148.31;;;10.64;41.59
49999;BME280;68071;45.062;7.356;2023-04-06T13:56:29;95154.91;;;11.19;39.98
49999;BME280;68071;45.062;7.356;2023-04-06T13:59:34;95136.06;;;11.42;40.39
49999;BME280;68071;45.062;7.356;2023-04-06T14:02:39;95139.63;;;11.42;40.31
49999;BME280;68071;45.062;7.356;2023-04-06T14:05:44;95150.13;;;11.24;41.00
49999;BME280;68071;45.062;7.356;2023-04-06T14:08:48;95145.94;;;11.43;39.56
49999;BME280;68071;45.062;7.356;2023-04-06T14:11:52;95141.94;;;11.13;40.29
49999;BME280;68071;45.062;7.356;2023-04-06T14:14:57;95133.59;;;11.51;40.25
49999;BME280;68071;45.062;7.356;2023-04-06T14:18:01;95134.59;;;11.33;38.64
49999;BME280;68071;45.062;7.356;2023-04-06T14:21:05;95132.06;;;10.70;42.89
49999;BME280;68071;45.062;7.356;2023-04-06T14:24:09;95138.53;;;10.98;41.43
49999;BME280;68071;45.062;7.356;2023-04-06T14:27:13;95138.63;;;10.87;42.04
49999;BME280;68071;45.062;7.356;2023-04-06T14:30:17;95131.25;;;10.73;41.54
49999;BME280;68071;45.062;7.356;2023-04-06T14:33:22;95126.94;;;11.10;42.09
49999;BME280;68071;45.062;7.356;2023-04-06T14:36:26;95131.81;;;10.99;41.34
49999;BME280;68071;45.062;7.356;2023-04-06T14:39:32;95127.91;;;10.51;40.27
49999;BME280;68071;45.062;7.356;2023-04-06T14:42:36;95127.72;;;10.72;40.59
49999;BME280;68071;45.062;7.356;2023-04-06T14:45:40;95119.44;;;11.07;40.33
49999;BME280;68071;45.062;7.356;2023-04-06T14:48:45;95121.00;;;12.32;39.48
49999;BME280;68071;45.062;7.356;2023-04-06T14:51:49;95119.91;;;12.26;42.10
49999;BME280;68071;45.062;7.356;2023-04-06T14:54:54;95114.66;;;13.23;38.77
49999;BME280;68071;45.062;7.356;2023-04-06T14:57:58;95112.75;;;11.70;41.13
49999;BME280;68071;45.062;7.356;2023-04-06T15:01:04;95108.31;;;11.49;41.03
49999;BME280;68071;45.062;7.356;2023-04-06T15:04:09;95107.13;;;12.80;38.50
49999;BME280;68071;45.062;7.356;2023-04-06T15:07:13;95102.00;;;12.31;38.58
49999;BME280;68071;45.062;7.356;2023-04-06T15:10:18;95102.28;;;11.85;39.42
49999;BME280;68071;45.062;7.356;2023-04-06T15:13:21;95105.88;;;11.82;41.84
49999;BME280;68071;45.062;7.356;2023-04-06T15:16:25;95102.38;;;12.33;38.82
49999;BME280;68071;45.062;7.356;2023-04-06T15:19:30;95097.84;;;12.66;39.62
49999;BME280;68071;45.062;7.356;2023-04-06T15:22:33;95101.56;;;12.80;39.17
49999;BME280;68071;45.062;7.356;2023-04-06T15:25:38;95098.69;;;12.87;39.86
49999;BME280;68071;45.062;7.356;2023-04-06T15:28:44;95103.97;;;13.62;37.08
49999;BME280;68071;45.062;7.356;2023-04-06T15:31:49;95104.19;;;12.67;39.60
49999;BME280;68071;45.062;7.356;2023-04-06T15:34:53;95106.88;;;11.99;39.78
49999;BME280;68071;45.062;7.356;2023-04-06T15:37:58;95098.44;;;12.78;39.59
49999;BME280;68071;45.062;7.356;2023-04-06T15:41:03;95091.38;;;13.57;36.02
49999;BME280;68071;45.062;7.356;2023-04-06T15:44:08;95096.97;;;14.11;35.72
49999;BME280;68071;45.062;7.356;2023-04-06T15:47:12;95089.94;;;13.29;37.74
49999;BME280;68071;45.062;7.356;2023-04-06T15:50:16;95092.19;;;12.50;40.36
49999;BME280;68071;45.062;7.356;2023-04-06T15:53:21;95087.66;;;13.04;38.33
49999;BME280;68071;45.062;7.356;2023-04-06T15:56:25;95093.00;;;13.14;37.53
49999;BME280;68071;45.062;7.356;2023-04-06T15:59:28;95081.22;;;13.51;36.45
49999;BME280;68071;45.062;7.356;2023-04-06T16:02:32;95086.81;;;13.07;37.55
49999;BME280;68071;45.062;7.356;2023-04-06T16:05:36;95092.09;;;13.01;36.95
49999;BME280;68071;45.062;7.356;2023-04-06T16:08:40;95088.00;;;13.86;36.76
49999;BME280;68071;45.062;7.356;2023-04-06T16:11:44;95088.38;;;14.38;35.35
49999;BME280;68071;45.062;7.356;2023-04-06T16:14:49;95090.56;;;15.09;33.48
49999;BME280;68071;45.062;7.356;2023-04-06T16:17:54;95088.63;;;15.36;34.24
49999;BME280;68071;45.062;7.356;2023-04-06T16:20:58;95092.25;;;15.62;33.08
49999;BME280;68071;45.062;7.356;2023-04-06T16:24:02;95091.25;;;15.13;33.37
49999;BME280;68071;45.062;7.356;2023-04-06T16:27:09;95094.19;;;15.78;32.09
49999;BME280;68071;45.062;7.356;2023-04-06T16:30:14;95085.09;;;15.91;32.08
49999;BME280;68071;45.062;7.356;2023-04-06T16:33:18;95087.50;;;15.76;32.98